Time;durP1;ratioP1;P1;durP2;ratioP2;P2;SDS_P1;SDS_P2;PMS_P1;PMS_P2;Temp;Humidity;BMP_temperature;BMP_pressure;BME280_temperature;BME280_humidity;BME280_pressure;Samples;Min_cycle;Max_cycle;Signal;HPM_P1;HPM_P2
2022/10/21 00:02:21;;;;;;;14.10;5.50;;;;;;;13.85;57.85;101154.69;4969753;28;99088;-66
2022/10/21 00:04:48;;;;;;;10.95;6.00;;;;;;;13.76;58.11;101155.09;4975490;28;99991;-65
2022/10/21 00:07:15;;;;;;;8.73;5.55;;;;;;;13.85;58.30;101175.94;4974875;28;97084;-64
2022/10/21 00:09:44;;;;;;;10.50;5.70;;;;;;;13.94;57.83;101174.69;4975057;28;96791;-65
2022/10/21 00:12:10;;;;;;;10.13;5.57;;;;;;;14.08;57.05;101171.44;4974389;28;99354;-65
2022/10/21 00:14:36;;;;;;;10.43;5.70;;;;;;;14.06;56.91;101162.66;4970137;28;99301;-65
2022/10/21 00:17:03;;;;;;;9.13;5.57;;;;;;;13.96;57.31;101173.72;4973660;28;96801;-65
2022/10/21 00:19:29;;;;;;;10.65;6.00;;;;;;;14.13;56.66;101180.06;4975374;28;96888;-64
2022/10/21 00:21:57;;;;;;;9.65;5.40;;;;;;;14.04;56.50;101181.34;4973315;28;98911;-66
2022/10/21 00:24:23;;;;;;;7.82;4.95;;;;;;;14.17;56.52;101176.38;4974631;28;99460;-66
2022/10/21 00:26:50;;;;;;;12.60;5.93;;;;;;;14.08;57.07;101182.06;4973552;28;98825;-65
2022/10/21 00:29:16;;;;;;;11.93;6.03;;;;;;;13.83;57.84;101188.44;4974443;28;97553;-65
2022/10/21 00:31:43;;;;;;;12.85;5.97;;;;;;;13.90;58.13;101191.69;4974750;28;99206;-65
2022/10/21 00:34:09;;;;;;;13.18;5.82;;;;;;;14.01;58.11;101202.72;4974322;28;98071;-66
2022/10/21 00:36:36;;;;;;;9.02;5.95;;;;;;;14.08;57.57;101201.53;4971448;28;96818;-65
2022/10/21 00:39:04;;;;;;;13.30;6.28;;;;;;;14.14;57.10;101203.06;4972271;28;96896;-66
2022/10/21 00:41:30;;;;;;;11.65;5.00;;;;;;;14.09;57.80;101207.72;4971519;28;98853;-65
2022/10/21 00:44:02;;;;;;;8.55;5.60;;;;;;;13.86;58.09;101206.88;4970107;28;99196;-66
2022/10/21 00:46:37;;;;;;;11.15;5.88;;;;;;;14.23;57.13;101202.69;4974049;28;96759;-65
2022/10/21 00:49:08;;;;;;;9.93;6.03;;;;;;;14.09;57.41;101194.44;4971631;28;97392;-66
2022/10/21 00:51:36;;;;;;;10.02;5.65;;;;;;;13.83;58.29;101199.06;4970073;28;98473;-66
2022/10/21 00:54:05;;;;;;;10.73;5.22;;;;;;;13.71;58.23;101193.41;4972949;28;98763;-65
2022/10/21 00:56:34;;;;;;;9.98;6.18;;;;;;;13.76;58.77;101197.59;4971402;28;97198;-66
2022/10/21 00:59:03;;;;;;;9.07;6.07;;;;;;;13.95;58.12;101193.22;4974643;28;96883;-65
2022/10/21 01:01:29;;;;;;;9.90;6.03;;;;;;;14.15;57.82;101191.50;4973147;28;99222;-65
2022/10/21 01:03:55;;;;;;;11.23;5.90;;;;;;;14.10;57.59;101181.09;4973738;28;98835;-65
2022/10/21 01:06:25;;;;;;;10.68;6.15;;;;;;;14.00;57.97;101168.25;4975051;28;97128;-65
2022/10/21 01:08:54;;;;;;;9.18;6.00;;;;;;;13.82;58.43;101154.84;4973268;28;96870;-65
2022/10/21 01:11:24;;;;;;;8.18;5.63;;;;;;;13.94;58.31;101143.69;4970723;28;99109;-65
2022/10/21 01:14:21;;;;;;;8.73;5.47;;;;;;;13.88;58.64;101132.44;4972589;28;99126;-65
2022/10/21 01:16:54;;;;;;;8.85;5.93;;;;;;;13.76;59.55;101148.91;4973425;28;96814;-65
2022/10/21 01:20:00;;;;;;;8.13;5.65;;;;;;;13.97;58.89;101148.00;4972582;28;96799;-65
2022/10/21 01:22:47;;;;;;;10.00;5.60;;;;;;;14.02;58.97;101150.47;4972889;28;99194;-65
2022/10/21 01:25:21;;;;;;;;;;;;;;;13.77;60.11;101146.19;4973706;28;98923;-67
2022/10/21 01:27:58;;;;;;;9.32;5.70;;;;;;;13.80;59.74;101140.75;4974609;28;96748;-66
2022/10/21 01:30:37;;;;;;;9.43;5.80;;;;;;;13.88;59.26;101133.31;4971778;28;97222;-66
2022/10/21 01:33:36;;;;;;;10.55;5.68;;;;;;;13.87;59.33;101130.72;4974103;28;99245;-66
2022/10/21 01:36:18;;;;;;;11.88;5.68;;;;;;;13.72;59.93;101132.22;4939436;28;98872;-66
2022/10/21 01:38:58;;;;;;;12.25;6.00;;;;;;;13.80;59.83;101119.50;4973019;28;96761;-66
2022/10/21 01:41:28;;;;;;;8.43;6.18;;;;;;;13.83;59.88;101124.69;4971024;28;96891;-65
2022/10/21 01:44:02;;;;;;;9.00;6.35;;;;;;;13.95;59.56;101129.47;4972439;28;98904;-65
2022/10/21 01:46:39;;;;;;;10.45;6.15;;;;;;;14.28;58.88;101136.88;4966870;28;101301;-65
2022/10/21 01:49:10;;;;;;;12.05;6.25;;;;;;;14.08;59.16;101134.25;4965149;28;98960;-66
2022/10/21 01:51:37;;;;;;;13.48;6.07;;;;;;;14.28;58.38;101120.94;4970835;28;96890;-65
2022/10/21 01:54:09;;;;;;;10.60;6.03;;;;;;;14.20;58.56;101115.97;4972368;28;98987;-65
2022/10/21 01:56:37;;;;;;;14.57;6.43;;;;;;;14.14;58.43;101116.22;4967842;28;99191;-66
2022/10/21 01:59:05;;;;;;;10.93;6.90;;;;;;;14.18;58.59;101106.31;4968987;28;97744;-66
2022/10/21 02:01:35;;;;;;;15.48;6.45;;;;;;;14.23;58.65;101093.72;4972870;28;97159;-67
2022/10/21 02:04:04;;;;;;;9.10;6.10;;;;;;;14.42;58.33;101091.09;4970073;28;99830;-66
2022/10/21 02:06:30;;;;;;;7.85;5.43;;;;;;;14.17;58.82;101091.34;4971513;28;99335;-65
2022/10/21 02:08:57;;;;;;;9.70;6.50;;;;;;;14.01;59.14;101079.66;4972460;28;96836;-66
2022/10/21 02:11:24;;;;;;;9.65;6.47;;;;;;;14.14;58.95;101070.19;4972104;28;96910;-66
2022/10/21 02:13:56;;;;;;;10.45;6.47;;;;;;;14.36;58.91;101060.31;4970660;28;99210;-66
2022/10/21 02:16:25;;;;;;;17.23;6.05;;;;;;;14.22;58.97;101060.94;4972712;28;98960;-66
2022/10/21 02:18:54;;;;;;;10.90;6.97;;;;;;;14.54;58.33;101051.50;4972733;28;96774;-66
2022/10/21 02:21:24;;;;;;;9.93;5.85;;;;;;;14.51;58.51;101051.66;4971335;28;96888;-66
2022/10/21 02:23:53;;;;;;;10.70;6.97;;;;;;;14.43;58.15;101045.84;4970042;28;99014;-66
2022/10/21 02:26:20;;;;;;;14.05;6.43;;;;;;;14.58;58.09;101050.44;4971962;28;98259;-66
2022/10/21 02:28:47;;;;;;;8.82;6.00;;;;;;;14.48;58.19;101065.09;4973408;28;96752;-68
2022/10/21 02:31:27;;;;;;;10.27;6.47;;;;;;;14.49;58.13;101061.50;4971261;28;97178;-66
2022/10/21 02:34:05;;;;;;;12.05;6.45;;;;;;;14.22;59.21;101063.59;4968497;28;98918;-65
2022/10/21 02:36:39;;;;;;;10.27;6.88;;;;;;;14.43;58.89;101066.25;4970083;28;98776;-66
2022/10/21 02:39:13;;;;;;;9.68;6.07;;;;;;;14.89;57.76;101055.16;4972980;28;97509;-66
2022/10/21 02:41:44;;;;;;;12.35;6.93;;;;;;;14.77;58.38;101050.41;4971180;28;97818;-66
2022/10/21 02:44:10;;;;;;;10.00;6.38;;;;;;;14.70;58.27;101046.34;4971164;28;99227;-66
2022/10/21 02:46:39;;;;;;;13.02;6.78;;;;;;;14.79;57.63;101045.03;4967563;28;99008;-65
2022/10/21 02:49:07;;;;;;;13.38;7.35;;;;;;;14.82;57.10;101042.22;4968138;28;96751;-66
2022/10/21 02:51:34;;;;;;;13.52;6.93;;;;;;;14.77;57.52;101034.44;4973402;28;96984;-66
2022/10/21 02:54:00;;;;;;;8.52;6.35;;;;;;;14.81;58.39;101021.88;4971199;28;98864;-66
2022/10/21 02:56:27;;;;;;;12.35;6.80;;;;;;;14.97;57.51;101005.06;4971246;28;99621;-67
2022/10/21 02:58:54;;;;;;;11.00;6.95;;;;;;;15.07;57.49;101014.34;4970364;28;97222;-65
2022/10/21 03:01:20;;;;;;;15.43;6.60;;;;;;;15.06;57.28;100993.97;4967129;28;97020;-66
2022/10/21 03:03:46;;;;;;;9.93;7.13;;;;;;;15.12;56.85;100993.66;4970221;28;98969;-66
2022/10/21 03:06:14;;;;;;;13.70;7.50;;;;;;;15.16;56.24;100991.75;4971697;28;99480;-66
2022/10/21 03:08:41;;;;;;;13.13;7.45;;;;;;;15.38;55.95;100996.81;4972624;28;96895;-66
2022/10/21 03:11:07;;;;;;;9.80;6.65;;;;;;;14.89;57.03;101011.72;4971833;28;96943;-66
2022/10/21 03:13:33;;;;;;;23.38;7.97;;;;;;;15.04;56.49;101005.63;4972091;28;99124;-66
2022/10/21 03:16:00;;;;;;;12.75;6.90;;;;;;;14.94;56.82;101004.38;4966865;28;98816;-67
2022/10/21 03:18:26;;;;;;;11.77;6.88;;;;;;;14.77;57.17;101014.03;4971248;28;96825;-65
2022/10/21 03:20:53;;;;;;;12.48;7.50;;;;;;;14.85;57.27;101002.16;4968158;28;97996;-65
2022/10/21 03:23:21;;;;;;;14.88;6.82;;;;;;;14.83;57.39;101006.72;4974625;28;99633;-66
2022/10/21 03:25:48;;;;;;;17.10;7.18;;;;;;;14.72;57.50;101005.41;4969557;28;99998;-67
2022/10/21 03:28:14;;;;;;;12.35;6.93;;;;;;;14.96;56.93;101015.81;4972657;28;96735;-66
2022/10/21 03:30:41;;;;;;;12.15;6.85;;;;;;;14.92;58.03;101011.56;4971651;28;97000;-66
2022/10/21 03:33:07;;;;;;;12.32;7.70;;;;;;;14.86;57.45;101011.88;4972071;28;98898;-65
2022/10/21 03:35:33;;;;;;;11.77;7.30;;;;;;;14.66;58.08;101015.50;4972427;28;98550;-65
2022/10/21 03:38:00;;;;;;;10.95;7.43;;;;;;;14.38;58.57;101010.63;4966530;28;96932;-66
2022/10/21 03:40:29;;;;;;;11.57;7.05;;;;;;;14.70;57.91;101001.13;4972098;28;96891;-68
2022/10/21 03:42:55;;;;;;;10.13;7.00;;;;;;;14.20;59.76;101004.34;4966290;28;98843;-67
2022/10/21 03:45:22;;;;;;;14.05;7.55;;;;;;;14.30;59.67;101008.31;4970091;28;99377;-66
2022/10/21 03:47:48;;;;;;;14.55;7.53;;;;;;;14.47;58.92;101009.31;4968917;28;96838;-66
2022/10/21 03:50:15;;;;;;;11.00;6.97;;;;;;;14.54;58.54;101005.44;4971636;28;98731;-66
2022/10/21 03:52:41;;;;;;;15.98;8.00;;;;;;;14.68;58.19;101006.50;4970492;28;98943;-66
2022/10/21 03:55:08;;;;;;;13.02;7.80;;;;;;;14.79;57.82;101005.97;4960666;28;102388;-68
2022/10/21 03:57:36;;;;;;;14.38;7.38;;;;;;;14.63;58.34;101010.34;4971074;28;96799;-67
2022/10/21 04:00:04;;;;;;;12.18;7.68;;;;;;;14.41;58.48;101010.47;4969415;28;96898;-67
2022/10/21 04:02:30;;;;;;;13.10;7.50;;;;;;;14.44;58.88;101002.34;4965323;28;99034;-67
2022/10/21 04:04:56;;;;;;;13.68;8.00;;;;;;;14.43;59.38;101005.97;4968915;28;99510;-66
2022/10/21 04:07:23;;;;;;;10.38;7.18;;;;;;;14.39;59.32;101004.38;4970174;28;96938;-65
2022/10/21 04:09:49;;;;;;;15.38;7.85;;;;;;;14.52;59.18;101004.66;4971027;28;97292;-65
2022/10/21 04:12:15;;;;;;;14.32;8.07;;;;;;;14.22;59.84;100993.63;4967979;28;99575;-65
2022/10/21 04:14:43;;;;;;;13.20;7.80;;;;;;;14.63;59.00;100981.09;4970997;28;98864;-68
2022/10/21 04:17:09;;;;;;;13.07;7.70;;;;;;;14.66;58.74;100971.13;4971296;28;97159;-65
2022/10/21 04:19:36;;;;;;;12.13;7.90;;;;;;;14.57;58.74;100965.44;4970061;28;97018;-65
2022/10/21 04:22:02;;;;;;;14.20;8.35;;;;;;;14.68;58.35;100955.97;4970664;28;101204;-65
2022/10/21 04:24:29;;;;;;;13.48;7.93;;;;;;;14.67;58.70;100959.56;4971450;28;99367;-65
2022/10/21 04:26:55;;;;;;;13.55;8.07;;;;;;;14.68;58.91;100947.13;4970426;28;97644;-65
2022/10/21 04:29:22;;;;;;;11.30;7.65;;;;;;;14.46;59.11;100939.34;4970963;28;96869;-66
2022/10/21 04:31:49;;;;;;;10.73;7.20;;;;;;;14.52;59.05;100917.75;4970581;28;98277;-66
2022/10/21 04:34:16;;;;;;;13.82;7.45;;;;;;;14.43;59.34;100928.00;4970670;28;99229;-67
2022/10/21 04:36:42;;;;;;;13.57;8.70;;;;;;;14.39;59.06;100921.97;4971389;28;97156;-66
2022/10/21 04:39:08;;;;;;;15.60;8.55;;;;;;;14.46;59.52;100915.41;4971172;28;96755;-65
2022/10/21 04:41:35;;;;;;;12.50;8.00;;;;;;;14.50;59.20;100913.47;4970427;28;99754;-66
2022/10/21 04:44:01;;;;;;;10.40;7.95;;;;;;;14.36;59.61;100916.78;4969752;28;98878;-67
2022/10/21 04:46:28;;;;;;;15.18;8.18;;;;;;;14.34;59.70;100918.63;4970595;28;97185;-66
2022/10/21 04:48:56;;;;;;;14.70;8.30;;;;;;;14.34;59.83;100908.88;4972945;28;97499;-66
2022/10/21 04:51:22;;;;;;;13.93;8.43;;;;;;;14.16;60.24;100909.75;4976844;28;99145;-66
2022/10/21 04:53:48;;;;;;;15.43;8.98;;;;;;;14.31;59.75;100908.13;4975110;28;98967;-65
2022/10/21 04:56:15;;;;;;;12.88;8.40;;;;;;;14.11;60.26;100913.56;4971872;28;98971;-66
2022/10/21 04:58:43;;;;;;;13.15;8.63;;;;;;;14.34;59.84;100910.66;4974345;28;96985;-67
2022/10/21 05:01:10;;;;;;;14.63;7.60;;;;;;;14.30;59.81;100903.78;4972211;28;99233;-66
2022/10/21 05:03:36;;;;;;;11.60;8.32;;;;;;;14.44;59.15;100901.31;4972685;28;99393;-65
2022/10/21 05:06:04;;;;;;;13.57;8.07;;;;;;;14.20;60.03;100905.13;4971412;28;96909;-66
2022/10/21 05:08:31;;;;;;;15.93;9.25;;;;;;;14.26;60.12;100888.91;4973050;28;96845;-66
2022/10/21 05:10:58;;;;;;;16.50;8.57;;;;;;;14.30;60.04;100871.88;4967404;28;98941;-66
2022/10/21 05:13:25;;;;;;;13.75;8.23;;;;;;;14.33;59.91;100867.25;4973925;28;99445;-66
2022/10/21 05:15:51;;;;;;;12.82;8.55;;;;;;;14.41;59.63;100872.25;4973215;28;98720;-66
2022/10/21 05:18:18;;;;;;;17.92;8.50;;;;;;;14.57;59.10;100867.03;4974972;28;96899;-65
2022/10/21 05:20:49;;;;;;;18.67;8.50;;;;;;;14.27;59.83;100875.53;4974634;28;99029;-65
2022/10/21 05:23:17;;;;;;;13.57;8.25;;;;;;;14.38;59.84;100883.00;4974057;28;99044;-66
2022/10/21 05:25:44;;;;;;;11.65;8.50;;;;;;;14.30;59.75;100891.34;4971912;28;97380;-65
2022/10/21 05:28:10;;;;;;;16.85;9.20;;;;;;;14.43;59.25;100886.31;4968003;28;96807;-66
2022/10/21 05:30:36;;;;;;;16.23;8.65;;;;;;;14.32;59.98;100881.47;4971107;28;96932;-66
2022/10/21 05:33:03;;;;;;;16.63;9.65;;;;;;;14.30;59.88;100869.22;4970358;28;98931;-65
2022/10/21 05:35:29;;;;;;;16.90;9.70;;;;;;;14.45;59.68;100865.81;4972974;28;96915;-66
2022/10/21 05:37:56;;;;;;;15.55;8.40;;;;;;;14.49;59.66;100878.03;4973326;28;96927;-66
2022/10/21 05:40:24;;;;;;;15.52;9.13;;;;;;;14.55;59.44;100861.78;4971463;28;98955;-65
2022/10/21 05:42:50;;;;;;;18.50;9.25;;;;;;;14.56;59.30;100863.50;4972503;28;98876;-66
2022/10/21 05:45:17;;;;;;;17.15;9.02;;;;;;;14.70;58.53;100862.81;4969476;28;97167;-66
2022/10/21 05:47:43;;;;;;;13.60;8.93;;;;;;;14.58;59.03;100860.75;4979203;28;96955;-66
2022/10/21 05:50:11;;;;;;;14.25;8.50;;;;;;;14.48;59.46;100856.84;4972463;28;99222;-67
2022/10/21 05:52:37;;;;;;;15.93;9.20;;;;;;;14.57;58.97;100851.91;4969036;28;97936;-66
2022/10/21 05:55:05;;;;;;;15.82;9.20;;;;;;;14.74;58.93;100851.06;4972800;28;96800;-67
2022/10/21 05:57:33;;;;;;;14.23;9.02;;;;;;;14.70;58.88;100854.84;4973248;28;97009;-66
2022/10/21 06:00:00;;;;;;;14.50;8.95;;;;;;;14.83;58.21;100860.41;4969829;28;97749;-67
2022/10/21 06:02:27;;;;;;;13.98;9.45;;;;;;;14.85;57.91;100851.38;4960506;28;100469;-66
2022/10/21 06:04:53;;;;;;;16.98;8.93;;;;;;;14.82;58.40;100850.69;4971866;28;97016;-66
2022/10/21 06:07:19;;;;;;;15.65;9.25;;;;;;;14.77;58.02;100857.09;4968933;28;97363;-66
2022/10/21 06:09:46;;;;;;;15.95;8.90;;;;;;;14.83;58.08;100861.25;4973868;28;98966;-66
2022/10/21 06:12:12;;;;;;;20.52;9.65;;;;;;;14.94;57.64;100850.06;4969708;28;99318;-66
2022/10/21 06:14:40;;;;;;;12.20;8.75;;;;;;;14.83;57.80;100853.28;4959596;28;97009;-67
2022/10/21 06:17:06;;;;;;;15.43;9.82;;;;;;;14.77;58.28;100859.75;4965099;28;96865;-66
2022/10/21 06:19:33;;;;;;;14.73;9.15;;;;;;;14.73;58.51;100857.34;4965180;28;99305;-65
2022/10/21 06:21:59;;;;;;;15.43;8.75;;;;;;;14.93;58.04;100854.50;4964586;28;99191;-66
2022/10/21 06:24:26;;;;;;;16.25;9.32;;;;;;;14.72;58.55;100872.44;4967210;28;96812;-66
2022/10/21 06:26:52;;;;;;;18.40;8.38;;;;;;;15.01;57.99;100862.09;4966516;28;99323;-67
2022/10/21 06:29:19;;;;;;;18.73;8.52;;;;;;;14.75;59.14;100864.31;4964327;28;99206;-67
2022/10/21 06:31:47;;;;;;;14.15;9.52;;;;;;;14.82;59.57;100858.66;4967201;28;98879;-65
2022/10/21 06:34:13;;;;;;;17.27;9.20;;;;;;;14.81;59.97;100854.28;4971114;28;97547;-67
2022/10/21 06:36:40;;;;;;;14.38;9.65;;;;;;;14.75;60.07;100860.78;4977315;28;96947;-66
2022/10/21 06:39:07;;;;;;;14.00;9.25;;;;;;;15.03;59.02;100865.56;4963110;28;99151;-67
2022/10/21 06:41:33;;;;;;;17.63;9.88;;;;;;;14.98;59.50;100860.44;4976653;28;97507;-66
2022/10/21 06:44:00;;;;;;;16.02;9.52;;;;;;;14.97;59.98;100872.03;4973965;28;96951;-67
2022/10/21 06:46:26;;;;;;;18.70;9.43;;;;;;;15.14;59.90;100876.50;4970136;28;98149;-66
2022/10/21 06:48:54;;;;;;;15.82;9.98;;;;;;;15.20;59.54;100875.31;4969657;28;99201;-66
2022/10/21 06:51:23;;;;;;;17.02;9.20;;;;;;;14.91;60.25;100872.34;4968985;28;98821;-66
2022/10/21 06:53:52;;;;;;;19.30;9.55;;;;;;;15.27;58.92;100866.91;4969615;28;97345;-66
2022/10/21 06:56:19;;;;;;;15.55;9.88;;;;;;;15.12;59.87;100860.59;4968424;28;96964;-67
2022/10/21 06:58:48;;;;;;;17.70;9.57;;;;;;;15.16;59.83;100863.97;4968711;28;98906;-68
2022/10/21 07:01:16;;;;;;;15.95;10.00;;;;;;;15.09;60.40;100859.91;4966109;28;98782;-67
2022/10/21 07:03:43;;;;;;;19.88;9.82;;;;;;;15.09;59.97;100868.75;4966716;28;97485;-66
2022/10/21 07:06:10;;;;;;;16.80;9.70;;;;;;;15.21;59.95;100867.25;4972618;28;96859;-67
2022/10/21 07:08:38;;;;;;;16.58;9.27;;;;;;;15.04;60.36;100868.09;4966214;28;99084;-66
2022/10/21 07:11:05;;;;;;;13.40;9.50;;;;;;;15.30;60.08;100852.56;4971705;28;99425;-67
2022/10/21 07:13:31;;;;;;;16.80;9.77;;;;;;;15.28;59.47;100867.78;4968677;28;97163;-67
2022/10/21 07:15:59;;;;;;;18.48;9.65;;;;;;;15.45;59.53;100881.91;4971306;28;96903;-67
2022/10/21 07:18:26;;;;;;;16.27;9.57;;;;;;;15.38;59.73;100879.66;4965746;28;99420;-67
2022/10/21 07:20:52;;;;;;;13.48;9.93;;;;;;;15.29;59.32;100883.69;4968533;28;98823;-66
2022/10/21 07:23:20;;;;;;;15.23;9.57;;;;;;;15.27;59.48;100880.22;4967209;28;98818;-67
2022/10/21 07:25:47;;;;;;;13.50;9.60;;;;;;;15.36;59.43;100890.38;4973123;28;96876;-67
2022/10/21 07:28:13;;;;;;;12.73;8.98;;;;;;;15.13;59.87;100888.06;4965734;28;98958;-67
2022/10/21 07:30:40;;;;;;;15.30;9.82;;;;;;;15.26;59.49;100891.81;4973276;28;98819;-66
2022/10/21 07:33:06;;;;;;;19.20;9.57;;;;;;;15.37;58.92;100886.78;4963968;28;98406;-66
2022/10/21 07:35:33;;;;;;;17.13;10.30;;;;;;;15.35;59.45;100887.81;4962410;28;97446;-66
2022/10/21 07:37:59;;;;;;;14.07;9.85;;;;;;;15.24;59.77;100891.03;4969412;28;99045;-67
2022/10/21 07:40:28;;;;;;;15.05;9.57;;;;;;;15.35;59.60;100879.84;4967308;28;99279;-66
2022/10/21 07:42:54;;;;;;;15.90;9.10;;;;;;;15.55;58.86;100879.66;4970139;28;97200;-66
2022/10/21 07:45:21;;;;;;;14.55;8.95;;;;;;;15.32;59.25;100887.97;4975427;28;97868;-67
2022/10/21 07:47:48;;;;;;;13.75;8.80;;;;;;;15.28;59.38;100881.97;4974475;28;98256;-67
2022/10/21 07:50:15;;;;;;;12.57;9.55;;;;;;;15.47;59.33;100872.06;4961375;28;100199;-66
2022/10/21 07:52:44;;;;;;;13.82;9.73;;;;;;;15.58;58.79;100881.28;4966189;28;98152;-66
2022/10/21 07:55:11;;;;;;;16.75;9.70;;;;;;;15.71;58.38;100885.88;4969961;28;96839;-68
2022/10/21 07:57:39;;;;;;;17.67;10.00;;;;;;;15.61;58.49;100883.78;4968653;28;98586;-67
2022/10/21 08:00:07;;;;;;;16.20;9.55;;;;;;;15.77;58.44;100887.31;4961671;28;97798;-68
2022/10/21 08:02:33;;;;;;;23.13;9.77;;;;;;;15.84;57.64;100873.59;4956961;28;99385;-66
2022/10/21 08:05:00;;;;;;;15.32;8.85;;;;;;;15.70;57.91;100877.94;4963367;28;99788;-66
2022/10/21 08:07:26;;;;;;;12.90;9.02;;;;;;;15.84;57.92;100875.38;4966310;28;98483;-66
2022/10/21 08:09:52;;;;;;;13.88;8.90;;;;;;;16.09;57.00;100880.22;4967898;28;98064;-66
2022/10/21 08:12:19;;;;;;;16.17;9.32;;;;;;;16.20;56.37;100884.03;4967985;28;100237;-67
2022/10/21 08:14:47;;;;;;;15.40;9.07;;;;;;;16.27;56.40;100887.19;4966857;28;97851;-66
2022/10/21 08:17:13;;;;;;;11.77;9.23;;;;;;;16.37;56.08;100884.84;4967361;28;98899;-66
2022/10/21 08:19:39;;;;;;;18.40;9.30;;;;;;;16.03;56.70;100878.75;4968637;28;99239;-66
2022/10/21 08:22:06;;;;;;;28.35;9.82;;;;;;;15.63;57.74;100874.75;4964550;28;97197;-65
2022/10/21 08:24:32;;;;;;;18.83;9.32;;;;;;;15.86;57.82;100878.84;4971134;28;97062;-65
2022/10/21 08:26:59;;;;;;;14.95;10.40;;;;;;;16.10;57.22;100866.81;4971330;28;97981;-66
2022/10/21 08:29:26;;;;;;;13.57;8.95;;;;;;;16.21;56.57;100863.56;4973596;28;99272;-67
2022/10/21 08:31:57;;;;;;;13.50;9.07;;;;;;;16.16;56.73;100862.94;4966147;28;97969;-67
2022/10/21 08:34:23;;;;;;;12.98;9.02;;;;;;;16.35;56.36;100861.78;4970825;28;96866;-66
2022/10/21 08:36:50;;;;;;;17.33;9.15;;;;;;;16.47;56.10;100856.72;4973208;28;99017;-66
2022/10/21 08:39:16;;;;;;;17.02;10.35;;;;;;;16.48;56.03;100850.41;4968799;28;98831;-66
2022/10/21 08:42:06;;;;;;;14.35;8.98;;;;;;;16.79;54.64;100847.72;4972010;28;97446;-66
2022/10/21 08:44:39;;;;;;;20.73;8.85;;;;;;;16.86;55.14;100857.06;4969375;28;97531;-66
2022/10/21 08:47:14;;;;;;;14.65;9.25;;;;;;;17.36;53.92;100856.66;4973057;28;98974;-66
2022/10/21 08:49:50;;;;;;;14.05;9.60;;;;;;;17.39;53.65;100850.28;4970178;28;99442;-66
2022/10/21 08:52:20;;;;;;;18.93;9.60;;;;;;;17.31;53.90;100847.22;4968678;28;97207;-66
2022/10/21 08:54:51;;;;;;;14.10;9.35;;;;;;;17.64;52.81;100850.50;4974549;28;97816;-66
2022/10/21 08:57:18;;;;;;;17.40;9.60;;;;;;;17.84;52.48;100847.41;4969081;28;99208;-66
2022/10/21 08:59:46;;;;;;;14.52;9.52;;;;;;;17.82;52.74;100838.63;4970932;28;98837;-66
2022/10/21 09:02:27;;;;;;;17.77;9.38;;;;;;;18.04;51.33;100837.25;4969317;28;96947;-67
2022/10/21 09:05:02;;;;;;;13.73;9.38;;;;;;;17.83;52.40;100834.16;4969445;28;96874;-65
2022/10/21 09:07:40;;;;;;;16.58;8.52;;;;;;;17.64;52.03;100826.44;4971956;28;99149;-65
2022/10/21 09:10:18;;;;;;;15.50;9.30;;;;;;;17.82;52.52;100824.41;4958158;28;101500;-68
2022/10/21 09:12:55;;;;;;;21.05;10.10;;;;;;;17.66;52.63;100815.63;4971712;28;97336;-65
2022/10/21 09:15:25;;;;;;;15.52;9.90;;;;;;;17.73;52.82;100820.50;4973326;28;97914;-65
2022/10/21 09:18:11;;;;;;;15.00;9.45;;;;;;;17.78;52.68;100825.56;4963164;28;99496;-66
2022/10/21 09:20:51;;;;;;;16.08;8.93;;;;;;;17.49;53.36;100816.69;4970334;28;98906;-66
2022/10/21 09:23:40;;;;;;;14.80;8.98;;;;;;;17.70;52.60;100812.69;4972046;28;97793;-66
2022/10/21 09:26:20;;;;;;;15.73;9.32;;;;;;;17.53;53.22;100807.50;4969280;28;97467;-66
2022/10/21 09:28:47;;;;;;;14.30;8.85;;;;;;;17.98;52.43;100800.22;4968675;28;99313;-66
2022/10/21 09:31:17;;;;;;;13.23;9.10;;;;;;;18.45;51.66;100808.59;4969155;28;99379;-65
2022/10/21 09:33:49;;;;;;;18.98;10.05;;;;;;;18.51;51.10;100810.88;4966311;28;96909;-65
2022/10/21 09:36:22;;;;;;;16.23;8.57;;;;;;;18.45;50.74;100816.63;4968961;28;96929;-66
2022/10/21 09:38:56;;;;;;;12.10;8.82;;;;;;;18.49;50.93;100812.81;4968450;28;99628;-66
2022/10/21 09:41:27;;;;;;;16.48;10.32;;;;;;;18.15;51.20;100802.63;4968023;28;98755;-66
2022/10/21 09:43:55;;;;;;;16.73;9.40;;;;;;;18.22;51.56;100802.13;4969311;28;97895;-65
2022/10/21 09:46:21;;;;;;;14.80;9.35;;;;;;;18.47;51.14;100801.34;4970851;28;97766;-65
2022/10/21 09:48:52;;;;;;;15.55;8.85;;;;;;;18.08;51.94;100801.31;4968919;28;99234;-65
2022/10/21 09:51:21;;;;;;;13.55;9.15;;;;;;;18.39;51.71;100806.34;4966720;28;99311;-66
2022/10/21 09:53:52;;;;;;;14.07;8.85;;;;;;;18.40;51.31;100807.22;4970127;28;97766;-67
2022/10/21 09:56:20;;;;;;;13.68;9.10;;;;;;;18.29;51.88;100810.63;4969144;28;97047;-66
2022/10/21 09:58:51;;;;;;;12.98;8.80;;;;;;;18.61;51.09;100814.69;4970639;28;99347;-68
2022/10/21 10:01:20;;;;;;;16.95;8.80;;;;;;;18.67;50.72;100813.41;4973541;28;98806;-65
2022/10/21 10:03:49;;;;;;;13.50;8.98;;;;;;;18.78;50.78;100802.81;4970605;28;97053;-66
2022/10/21 10:06:31;;;;;;;14.82;8.65;;;;;;;18.82;50.75;100801.66;4968342;28;97329;-66
2022/10/21 10:09:13;;;;;;;14.80;9.35;;;;;;;19.24;49.61;100797.81;4968681;28;100300;-66
2022/10/21 10:11:50;;;;;;;15.10;9.02;;;;;;;18.98;50.29;100804.97;4965655;28;101550;-66
2022/10/21 10:14:32;;;;;;;15.85;10.65;;;;;;;19.30;49.32;100799.19;4971288;28;96862;-66
2022/10/21 10:17:20;;;;;;;13.93;8.68;;;;;;;19.71;48.66;100783.72;4976923;28;98095;-66
2022/10/21 10:20:22;;;;;;;13.60;8.23;;;;;;;19.69;48.70;100788.31;4967356;28;101628;-65
2022/10/21 10:23:09;;;;;;;13.60;8.65;;;;;;;19.86;47.66;100779.06;4958823;28;98978;-66
2022/10/21 10:25:38;;;;;;;14.40;8.88;;;;;;;19.90;47.80;100772.50;4966166;28;101213;-66
2022/10/21 10:28:19;;;;;;;13.55;9.35;;;;;;;19.77;47.88;100774.38;4970746;28;96927;-67
2022/10/21 10:30:49;;;;;;;14.07;8.85;;;;;;;19.71;48.18;100772.13;4969558;28;97853;-66
2022/10/21 10:33:18;;;;;;;11.20;8.57;;;;;;;19.43;48.59;100766.06;4964981;28;100910;-66
2022/10/21 10:35:47;;;;;;;19.23;8.52;;;;;;;19.44;49.10;100770.44;4970849;28;97213;-67
2022/10/21 10:38:20;;;;;;;24.58;9.43;;;;;;;19.61;49.49;100766.59;4969887;28;97626;-67
2022/10/21 10:40:49;;;;;;;16.35;9.20;;;;;;;19.30;49.85;100757.19;4970974;28;99189;-66
2022/10/21 10:43:24;;;;;;;12.55;8.00;;;;;;;19.29;50.00;100760.84;4965616;28;98890;-65
2022/10/21 10:45:55;;;;;;;16.17;8.95;;;;;;;19.39;50.35;100751.16;4970052;28;97798;-66
2022/10/21 10:48:27;;;;;;;20.17;8.70;;;;;;;19.73;48.74;100751.44;4970674;28;96958;-66
2022/10/21 10:50:53;;;;;;;16.75;8.88;;;;;;;20.01;47.77;100751.13;4972304;28;98893;-66
2022/10/21 10:53:29;;;;;;;14.13;8.50;;;;;;;20.13;46.65;100752.03;4972203;28;98629;-67
2022/10/21 10:56:02;;;;;;;19.73;9.52;;;;;;;19.91;47.22;100739.34;4969820;28;97757;-65
2022/10/21 10:58:33;;;;;;;15.02;8.55;;;;;;;19.82;46.89;100745.41;4972995;28;97552;-67
2022/10/21 11:01:06;;;;;;;16.25;8.65;;;;;;;19.95;46.48;100743.53;4966212;28;102740;-66
2022/10/21 11:03:38;;;;;;;12.70;7.68;;;;;;;20.10;46.44;100739.69;4972294;28;99341;-67
2022/10/21 11:06:13;;;;;;;14.07;8.15;;;;;;;20.49;46.07;100732.28;4969980;28;96847;-67
2022/10/21 11:08:42;;;;;;;15.75;8.43;;;;;;;20.70;46.01;100733.31;4971619;28;97900;-67
2022/10/21 11:11:14;;;;;;;17.15;9.25;;;;;;;20.86;45.54;100739.22;4965898;28;98252;-66
2022/10/21 11:13:41;;;;;;;15.77;9.43;;;;;;;21.12;45.07;100736.31;4968998;28;99167;-66
2022/10/21 11:16:23;;;;;;;13.25;8.70;;;;;;;20.90;45.11;100731.75;4970352;28;97177;-67
2022/10/21 11:18:57;;;;;;;14.55;8.45;;;;;;;21.06;44.65;100733.13;4964185;28;100818;-65
2022/10/21 11:21:42;;;;;;;14.02;9.20;;;;;;;20.74;44.79;100729.44;4968696;28;99483;-66
2022/10/21 11:24:30;;;;;;;13.73;8.00;;;;;;;20.78;45.05;100730.91;4968544;28;97856;-66
2022/10/21 11:27:00;;;;;;;11.70;8.48;;;;;;;20.44;45.58;100718.38;4955817;28;97403;-66
2022/10/21 11:29:39;;;;;;;20.23;9.15;;;;;;;20.26;46.50;100724.16;4971450;28;97245;-66